Accueil
METAR-TAF:

METAR-TAF

Aéroports :

Stanly County Airport

Albemarle, Caroline du Nord, États-Unis

latitude: 35-25-00N, longitude: 080-09-03W, altitude: 186 m

Observation

Le bulletin a été fait il y a 29 minutes, à 15:55 UTC
Vent 6 kt de nord-est
Température 3°C
Humidité 52%
Pression 1031 hPa
Visibilité: 16.1 km
Ciel couvert à une hauteur de 2600 ft

METAR: KVUJ 141555Z AUTO 04006KT 10SM OVC026 03/M06 A3044 RMK AO2 T00301059

Heure: 11:24 (16:24 UTC)


TAF: absent

Observations et prévisions météorologiques de plus de 4000 aéroports (messages METAR et TAF).

Les stations disponibles sont représentées par des disques jaunes et rouges sur la carte.

Passer la souris dessus pour voir le nom de la station.

Cliquer dessus pour voir les observations et prévisions météorologiques.

Pour changer de carte: cliquez sur les boutons verts avec une croix noire pour zoomer, sur le bouton vert avec un tiret pour effectuer un zoom arrière, ou sur les flèches vertes pour les cartes adjacentes.


METAR-TAF: